Time;durP1;ratioP1;P1;durP2;ratioP2;P2;SDS_P1;SDS_P2;PMS_P1;PMS_P2;Temp;Humidity;BMP_temperature;BMP_pressure;BME280_temperature;BME280_humidity;BME280_pressure;Samples;Min_cycle;Max_cycle;Signal;HPM_P1;HPM_P2
2022/03/12 00:02:15;;;;;;;26.08;15.98;;;;;;;9.05;42.04;101198.72;5073691;28;20020;-54
2022/03/12 00:04:41;;;;;;;24.40;15.32;;;;;;;9.05;41.85;101198.72;5073193;28;20016;-53
2022/03/12 00:07:09;;;;;;;24.90;16.20;;;;;;;9.03;43.29;101195.41;5073092;28;20025;-54
2022/03/12 00:09:34;;;;;;;24.95;15.77;;;;;;;9.06;42.98;101199.56;5073320;28;20028;-56
2022/03/12 00:12:00;;;;;;;26.30;16.20;;;;;;;9.08;41.66;101194.53;5073165;28;20055;-54
2022/03/12 00:14:28;;;;;;;29.88;16.70;;;;;;;9.06;41.73;101196.78;5073431;28;20101;-55
2022/03/12 00:16:54;;;;;;;26.17;16.98;;;;;;;9.05;41.90;101190.44;5073063;28;20024;-55
2022/03/12 00:19:21;;;;;;;25.35;16.52;;;;;;;9.09;40.98;101196.19;5072467;28;20039;-54
2022/03/12 00:21:48;;;;;;;26.77;17.45;;;;;;;9.06;41.45;101194.03;5073088;28;20024;-55
2022/03/12 00:24:15;;;;;;;26.52;15.90;;;;;;;9.12;42.18;101203.06;5073399;28;20025;-55
2022/03/12 00:26:46;;;;;;;27.13;16.55;;;;;;;9.07;41.68;101194.84;5073161;28;20052;-56
2022/03/12 00:29:15;;;;;;;27.67;17.27;;;;;;;9.10;42.29;101199.81;5073489;28;20119;-55
2022/03/12 00:31:42;;;;;;;27.55;16.02;;;;;;;9.12;42.18;101211.34;5073024;28;20032;-54
2022/03/12 00:34:08;;;;;;;29.02;16.83;;;;;;;9.09;42.35;101215.53;5072235;28;20032;-55
2022/03/12 00:36:34;;;;;;;26.52;16.80;;;;;;;9.10;41.95;101214.41;5072755;28;20028;-54
2022/03/12 00:38:59;;;;;;;26.65;16.50;;;;;;;9.09;42.50;101215.53;5072537;28;20032;-55
2022/03/12 00:41:25;;;;;;;27.08;16.10;;;;;;;9.12;42.77;101216.88;5073405;28;20020;-57
2022/03/12 00:43:51;;;;;;;27.30;16.02;;;;;;;9.13;42.68;101216.59;5072848;28;20031;-54
2022/03/12 00:46:16;;;;;;;26.27;16.73;;;;;;;9.14;42.27;101222.94;5072733;28;20377;-53
2022/03/12 00:48:42;;;;;;;26.95;15.68;;;;;;;9.12;42.39;101219.63;5072475;28;20060;-53
2022/03/12 00:51:09;;;;;;;25.40;16.42;;;;;;;9.12;43.29;101225.16;5072726;28;20028;-54
2022/03/12 00:53:37;;;;;;;27.95;16.67;;;;;;;9.02;42.30;101213.06;5072448;28;20131;-54
2022/03/12 00:56:03;;;;;;;25.52;16.33;;;;;;;9.12;42.53;101228.75;5072637;28;20122;-53
2022/03/12 00:58:29;;;;;;;25.48;16.23;;;;;;;9.11;42.87;101226.28;5072530;28;20151;-53
2022/03/12 01:00:54;;;;;;;25.40;16.00;;;;;;;9.08;42.91;101222.16;5072602;28;20107;-54
2022/03/12 01:03:19;;;;;;;28.48;17.77;;;;;;;9.07;42.90;101226.00;5072097;28;20028;-54
2022/03/12 01:05:47;;;;;;;25.17;16.15;;;;;;;9.07;43.61;101216.94;5072679;28;20398;-56
2022/03/12 01:08:13;;;;;;;26.80;17.02;;;;;;;9.10;43.96;101227.41;5074116;28;20036;-55
2022/03/12 01:10:38;;;;;;;25.50;16.33;;;;;;;9.11;43.21;101223.53;5076195;28;20168;-55
2022/03/12 01:13:03;;;;;;;29.50;16.83;;;;;;;9.09;43.72;101221.03;5076737;28;20020;-54
2022/03/12 01:15:29;;;;;;;27.85;17.25;;;;;;;9.10;43.39;101236.50;5076762;28;20097;-54
2022/03/12 01:17:54;;;;;;;28.27;16.58;;;;;;;9.11;43.93;101224.34;5076906;28;20024;-54
2022/03/12 01:20:21;;;;;;;25.50;16.52;;;;;;;9.11;44.11;101226.28;5076328;28;20519;-54
2022/03/12 01:22:46;;;;;;;25.83;15.73;;;;;;;9.14;44.78;101240.34;5076097;28;20546;-57
2022/03/12 01:25:11;;;;;;;26.48;16.33;;;;;;;9.12;44.76;101228.75;5075708;28;20100;-54
2022/03/12 01:27:37;;;;;;;26.10;16.63;;;;;;;9.13;44.71;101238.69;5076580;28;20025;-54
2022/03/12 01:30:06;;;;;;;25.70;16.38;;;;;;;9.10;45.52;101232.91;5076521;28;20103;-55
2022/03/12 01:32:31;;;;;;;28.52;16.95;;;;;;;9.14;45.99;101231.22;5076348;28;20028;-55
2022/03/12 01:34:57;;;;;;;25.92;16.90;;;;;;;9.15;47.08;101239.22;5076393;28;20024;-55
2022/03/12 01:37:23;;;;;;;25.75;16.17;;;;;;;9.16;47.47;101240.03;5075831;28;20029;-56
2022/03/12 01:39:49;;;;;;;25.90;16.98;;;;;;;9.13;48.05;101235.94;5076084;28;20111;-55
2022/03/12 01:42:16;;;;;;;26.20;16.80;;;;;;;9.12;48.15;101238.97;5076336;28;20036;-54
2022/03/12 01:44:42;;;;;;;25.38;17.45;;;;;;;9.05;49.56;101242.88;5075902;28;20024;-55
2022/03/12 01:47:11;;;;;;;26.55;17.50;;;;;;;9.05;49.45;101242.88;5076568;28;20032;-55
2022/03/12 01:49:37;;;;;;;28.35;17.58;;;;;;;9.01;49.57;101249.25;5075378;28;20132;-55
2022/03/12 01:52:04;;;;;;;27.27;17.38;;;;;;;8.96;49.81;101241.81;5075592;28;20419;-55
2022/03/12 01:54:30;;;;;;;26.40;16.50;;;;;;;8.96;49.79;101247.34;5075799;28;20443;-55
2022/03/12 01:56:58;;;;;;;26.25;17.10;;;;;;;8.92;50.03;101262.00;5075427;28;20027;-54
2022/03/12 01:59:24;;;;;;;25.67;16.95;;;;;;;8.88;50.14;101259.78;5075733;28;20039;-55
2022/03/12 02:01:52;;;;;;;28.58;16.88;;;;;;;8.88;49.56;101261.75;5075298;28;20400;-55
2022/03/12 02:04:20;;;;;;;28.33;17.38;;;;;;;8.87;49.18;101262.84;5075961;28;20028;-56
2022/03/12 02:06:46;;;;;;;26.05;18.02;;;;;;;8.85;49.27;101257.63;5075672;28;20032;-53
2022/03/12 02:09:16;;;;;;;26.42;16.83;;;;;;;8.83;49.88;101259.84;5075617;28;20058;-53
2022/03/12 02:11:45;;;;;;;28.48;17.45;;;;;;;8.82;50.26;101258.19;5075096;28;20051;-53
2022/03/12 02:14:16;;;;;;;25.23;16.77;;;;;;;8.80;50.27;101260.41;5075516;28;20441;-54
2022/03/12 02:16:53;;;;;;;26.70;17.55;;;;;;;8.82;50.60;101247.16;5075411;28;20025;-55
2022/03/12 02:19:20;;;;;;;26.63;17.20;;;;;;;8.79;50.63;101247.72;5075479;28;20052;-54
2022/03/12 02:21:57;;;;;;;26.88;17.17;;;;;;;8.76;50.68;101253.81;5075749;28;20066;-53
2022/03/12 02:24:25;;;;;;;27.48;16.38;;;;;;;8.75;51.12;101260.44;5075124;28;20043;-54
2022/03/12 02:26:51;;;;;;;27.88;17.95;;;;;;;8.76;51.17;101256.56;5075280;28;20037;-54
2022/03/12 02:29:20;;;;;;;26.25;17.35;;;;;;;8.71;51.74;101248.31;5075026;28;20035;-53
2022/03/12 02:31:49;;;;;;;26.50;17.17;;;;;;;8.69;51.43;101250.56;5073592;28;20036;-54
2022/03/12 02:34:22;;;;;;;25.80;16.65;;;;;;;8.66;51.68;101256.63;5074934;28;20070;-54
2022/03/12 02:36:52;;;;;;;26.70;17.10;;;;;;;8.73;51.88;101262.66;5075550;28;20024;-54
2022/03/12 02:39:20;;;;;;;25.85;17.23;;;;;;;8.69;51.77;101264.34;5075842;28;20104;-53
2022/03/12 02:41:47;;;;;;;26.13;17.05;;;;;;;8.68;51.92;101255.22;5074641;28;20104;-54
2022/03/12 02:44:17;;;;;;;25.77;16.17;;;;;;;8.67;51.47;101253.56;5074947;28;20025;-54
2022/03/12 02:46:43;;;;;;;27.00;17.25;;;;;;;8.69;51.31;101253.31;5074767;28;20020;-56
2022/03/12 02:49:08;;;;;;;27.67;17.40;;;;;;;8.68;52.00;101257.97;5075199;28;20029;-53
2022/03/12 02:51:34;;;;;;;29.13;17.42;;;;;;;8.68;51.50;101265.44;5090549;28;20121;-54
2022/03/12 02:53:59;;;;;;;25.58;15.88;;;;;;;8.70;51.60;101260.44;5075102;28;20036;-54
2022/03/12 02:56:26;;;;;;;27.33;17.17;;;;;;;8.63;51.40;101265.44;5074857;28;20086;-54
2022/03/12 02:58:52;;;;;;;25.80;17.23;;;;;;;8.65;50.81;101266.81;5074591;28;20024;-53
2022/03/12 03:01:18;;;;;;;25.77;16.33;;;;;;;8.69;51.39;101267.09;5074387;28;20033;-55
2022/03/12 03:03:45;;;;;;;26.92;16.52;;;;;;;8.65;50.78;101272.31;5074288;28;20047;-56
2022/03/12 03:06:13;;;;;;;25.33;16.08;;;;;;;8.64;51.44;101270.72;5074665;28;20076;-56
2022/03/12 03:08:39;;;;;;;28.65;16.75;;;;;;;8.60;50.87;101279.81;5074861;28;20028;-54
2022/03/12 03:11:19;;;;;;;28.63;18.35;;;;;;;8.50;50.96;101266.88;5085868;22;20110;-59
2022/03/12 03:13:45;;;;;;;26.75;17.20;;;;;;;8.55;50.74;101281.47;5073970;28;20028;-59
2022/03/12 03:16:20;;;;;;;27.25;17.50;;;;;;;8.43;50.98;101273.50;5073617;28;20104;-58
2022/03/12 03:18:51;;;;;;;27.40;17.45;;;;;;;8.53;51.85;101280.94;5073695;28;20444;-58
2022/03/12 03:21:19;;;;;;;26.65;17.00;;;;;;;8.52;51.67;101283.97;5073677;28;20020;-59
2022/03/12 03:23:45;;;;;;;28.67;18.20;;;;;;;8.51;51.25;101282.31;5074263;28;20054;-60
2022/03/12 03:26:10;;;;;;;26.52;17.17;;;;;;;8.46;51.34;101274.03;5073978;28;20369;-60
2022/03/12 03:28:35;;;;;;;27.02;17.33;;;;;;;8.45;51.42;101286.19;5073924;28;20115;-59
2022/03/12 03:31:04;;;;;;;26.23;16.85;;;;;;;8.38;51.74;101287.28;5072863;28;20107;-60
2022/03/12 03:33:29;;;;;;;28.25;17.00;;;;;;;8.33;52.07;101286.47;5073840;28;20433;-58
2022/03/12 03:35:55;;;;;;;25.35;16.45;;;;;;;8.23;52.53;101293.66;5073407;28;20503;-58
2022/03/12 03:38:20;;;;;;;26.42;16.92;;;;;;;8.17;52.56;101292.03;5073942;28;20028;-57
2022/03/12 03:40:46;;;;;;;27.50;17.65;;;;;;;8.06;53.13;101295.91;5073527;28;20020;-57
2022/03/12 03:43:15;;;;;;;26.40;17.27;;;;;;;8.03;53.40;101299.25;5073845;28;20341;-59
2022/03/12 03:45:43;;;;;;;26.52;17.25;;;;;;;7.95;54.27;101301.44;5073259;28;20143;-60
2022/03/12 03:48:14;;;;;;;28.48;17.38;;;;;;;7.76;55.65;101292.94;5073988;28;20035;-58
2022/03/12 03:50:42;;;;;;;27.35;16.77;;;;;;;7.78;55.77;101311.91;5073921;28;20024;-61
2022/03/12 03:53:11;;;;;;;25.23;16.65;;;;;;;7.72;56.26;101304.78;5073846;28;20104;-58
2022/03/12 03:55:36;;;;;;;27.25;17.77;;;;;;;7.63;56.41;101313.59;5073852;28;20044;-58
2022/03/12 03:58:03;;;;;;;26.90;17.00;;;;;;;7.59;56.57;101311.66;5073379;28;20047;-59
2022/03/12 04:00:29;;;;;;;27.88;17.15;;;;;;;7.55;56.79;101314.13;5073541;28;20037;-59
2022/03/12 04:03:02;;;;;;;27.02;17.15;;;;;;;7.52;55.88;101311.06;5073362;28;20497;-58
2022/03/12 04:05:34;;;;;;;28.30;17.05;;;;;;;7.45;56.42;101311.38;5056130;28;20052;-59
2022/03/12 04:08:00;;;;;;;27.98;18.15;;;;;;;7.38;56.42;101322.63;5073130;28;20017;-58
2022/03/12 04:10:26;;;;;;;26.55;17.02;;;;;;;7.32;56.87;101323.75;5054942;28;20021;-59
2022/03/12 04:12:51;;;;;;;28.42;16.70;;;;;;;7.25;56.53;101325.91;5073636;28;20035;-59
2022/03/12 04:15:17;;;;;;;26.05;16.95;;;;;;;7.24;57.11;101327.84;5073518;28;20016;-59
2022/03/12 04:17:44;;;;;;;27.17;16.98;;;;;;;7.19;56.69;101336.06;5073012;28;20037;-58
2022/03/12 04:20:13;;;;;;;26.80;16.50;;;;;;;7.14;57.03;101336.06;5073452;28;20045;-58
2022/03/12 04:22:39;;;;;;;27.83;16.20;;;;;;;7.13;57.71;101345.41;5073061;28;20472;-58
2022/03/12 04:25:05;;;;;;;27.88;16.38;;;;;;;7.08;58.12;101340.72;5073202;28;20039;-59
2022/03/12 04:27:30;;;;;;;26.60;17.42;;;;;;;7.04;59.20;101347.84;5072663;28;20032;-58
2022/03/12 04:29:56;;;;;;;27.30;17.02;;;;;;;7.04;60.25;101347.84;5072969;28;20031;-58
2022/03/12 04:32:22;;;;;;;27.20;16.63;;;;;;;7.02;60.31;101348.13;5072430;28;20545;-57
2022/03/12 04:34:47;;;;;;;27.05;17.20;;;;;;;7.07;60.51;101341.81;5072724;28;20056;-59
2022/03/12 04:37:12;;;;;;;25.35;16.90;;;;;;;7.12;61.21;101344.59;5072984;28;20052;-58
2022/03/12 04:39:39;;;;;;;25.90;17.10;;;;;;;7.11;61.37;101339.34;5072992;28;20036;-58
2022/03/12 04:42:05;;;;;;;27.23;17.25;;;;;;;7.06;61.55;101340.16;5054973;28;20028;-59
2022/03/12 04:44:30;;;;;;;26.25;16.90;;;;;;;7.01;61.63;101332.72;5072819;28;20074;-59
2022/03/12 04:46:55;;;;;;;25.50;17.38;;;;;;;6.99;60.89;101347.84;5072106;28;20499;-58
2022/03/12 04:49:20;;;;;;;26.63;17.10;;;;;;;6.96;61.28;101337.38;5072093;28;20054;-58
2022/03/12 04:51:46;;;;;;;25.67;16.55;;;;;;;6.91;60.94;101349.19;5072659;28;20111;-59
2022/03/12 04:54:11;;;;;;;25.85;16.75;;;;;;;6.83;60.82;101350.56;5073109;28;20078;-57
2022/03/12 04:56:36;;;;;;;29.83;18.10;;;;;;;6.81;61.74;101360.13;5072894;28;20422;-59
2022/03/12 04:59:02;;;;;;;26.23;16.88;;;;;;;6.80;61.71;101350.25;5072905;28;20337;-59
2022/03/12 05:01:28;;;;;;;28.35;18.08;;;;;;;6.79;61.95;101352.16;5072850;28;20032;-59
2022/03/12 05:03:54;;;;;;;28.88;17.15;;;;;;;6.79;61.79;101354.09;5072472;28;20020;-58
2022/03/12 05:06:20;;;;;;;28.90;17.17;;;;;;;6.75;62.49;101351.06;5072832;28;20040;-58
2022/03/12 05:08:45;;;;;;;27.42;17.50;;;;;;;6.71;62.83;101358.19;5054607;28;20040;-58
2022/03/12 05:11:11;;;;;;;26.52;17.27;;;;;;;6.68;62.95;101364.22;5072565;28;20392;-58
2022/03/12 05:13:37;;;;;;;27.00;17.25;;;;;;;6.67;62.98;101365.28;5072049;28;20025;-58
2022/03/12 05:16:08;;;;;;;26.52;17.33;;;;;;;6.63;64.14;101364.19;5054393;28;20396;-60
2022/03/12 05:18:36;;;;;;;26.88;17.05;;;;;;;6.53;64.56;101354.81;5071632;28;20032;-59
2022/03/12 05:21:03;;;;;;;26.88;16.50;;;;;;;6.67;64.99;101368.03;5072350;28;20021;-59
2022/03/12 05:23:29;;;;;;;27.83;17.88;;;;;;;6.61;65.32;101366.38;5071960;28;20032;-60
2022/03/12 05:25:54;;;;;;;26.35;15.65;;;;;;;6.62;66.06;101368.03;5072714;28;20143;-60
2022/03/12 05:28:22;;;;;;;26.30;16.80;;;;;;;6.51;67.56;101358.91;5072440;28;20491;-60
2022/03/12 05:30:49;;;;;;;25.70;16.63;;;;;;;6.60;67.36;101372.97;5072315;28;20024;-60
2022/03/12 05:33:16;;;;;;;27.17;18.05;;;;;;;6.58;67.89;101378.75;5054667;28;20039;-60
2022/03/12 05:35:43;;;;;;;26.35;17.20;;;;;;;6.58;67.68;101384.25;5071853;28;20059;-60
2022/03/12 05:38:11;;;;;;;25.42;16.95;;;;;;;6.58;68.56;101397.13;5072600;28;20430;-60
2022/03/12 05:40:39;;;;;;;25.52;16.85;;;;;;;6.58;68.15;101377.91;5072448;28;20021;-59
2022/03/12 05:43:11;;;;;;;25.73;17.20;;;;;;;6.55;69.05;101379.25;5072278;28;20048;-60
2022/03/12 05:45:37;;;;;;;26.13;17.23;;;;;;;6.54;68.87;101389.44;5072314;28;20063;-61
2022/03/12 05:48:02;;;;;;;26.85;17.10;;;;;;;6.52;69.21;101388.03;5072063;28;20052;-61
2022/03/12 05:50:28;;;;;;;24.85;16.67;;;;;;;6.51;69.61;101392.72;5071763;28;20477;-61
2022/03/12 05:52:53;;;;;;;24.85;17.45;;;;;;;6.50;69.25;101393.81;5071672;28;20473;-60
2022/03/12 05:55:22;;;;;;;25.52;17.73;;;;;;;6.45;69.73;101388.28;5075191;28;20044;-59
2022/03/12 05:57:48;;;;;;;27.52;18.60;;;;;;;6.42;70.58;101398.97;5076041;28;20035;-60
2022/03/12 06:00:15;;;;;;;25.92;17.52;;;;;;;6.35;70.88;101391.78;5075889;28;20025;-59
2022/03/12 06:02:51;;;;;;;25.60;17.15;;;;;;;6.33;71.16;101393.13;5075288;28;20024;-58
2022/03/12 06:05:21;;;;;;;26.65;18.05;;;;;;;6.29;71.36;101403.84;5075320;28;20075;-58
2022/03/12 06:07:49;;;;;;;25.88;17.45;;;;;;;6.26;72.15;101403.53;5057711;28;20086;-59
2022/03/12 06:10:16;;;;;;;26.48;17.60;;;;;;;6.15;72.15;101397.97;5075570;28;20042;-60
2022/03/12 06:12:43;;;;;;;25.27;16.33;;;;;;;6.18;72.45;101399.34;5075671;28;20035;-59
2022/03/12 06:15:10;;;;;;;25.13;17.17;;;;;;;6.29;72.04;101403.00;5057205;28;20383;-59
2022/03/12 06:17:36;;;;;;;25.05;16.95;;;;;;;6.30;72.12;101402.75;5075488;28;20040;-59
2022/03/12 06:20:01;;;;;;;27.92;16.60;;;;;;;6.29;72.72;101395.59;5075630;28;20025;-60
2022/03/12 06:22:26;;;;;;;25.38;15.82;;;;;;;6.35;72.76;101411.00;5075184;28;20395;-58
2022/03/12 06:24:52;;;;;;;24.48;15.88;;;;;;;6.42;73.29;101415.47;5075287;28;20074;-58
2022/03/12 06:27:20;;;;;;;25.38;17.08;;;;;;;6.44;73.59;101416.00;5075834;28;20029;-58
2022/03/12 06:29:46;;;;;;;25.33;16.58;;;;;;;6.44;74.47;101416.84;5059460;28;20033;-56
2022/03/12 06:32:13;;;;;;;25.30;15.93;;;;;;;6.50;74.52;101417.72;5053356;28;20033;-59
2022/03/12 06:34:39;;;;;;;23.98;15.65;;;;;;;6.55;74.18;101431.50;5053349;28;20037;-58
2022/03/12 06:37:04;;;;;;;25.15;15.20;;;;;;;6.61;75.18;101438.69;5053241;28;20129;-59
2022/03/12 06:39:29;;;;;;;23.75;15.50;;;;;;;6.65;74.67;101428.81;5051377;28;20029;-58
2022/03/12 06:41:56;;;;;;;23.83;15.57;;;;;;;6.72;74.75;101432.16;5053144;28;20037;-58
2022/03/12 06:44:22;;;;;;;23.63;15.07;;;;;;;6.81;74.65;101434.41;5053353;28;20446;-59
2022/03/12 06:46:50;;;;;;;22.90;14.82;;;;;;;6.90;74.48;101429.22;5043687;28;20039;-59
2022/03/12 06:49:16;;;;;;;23.75;15.70;;;;;;;6.96;75.14;101434.50;5072747;28;20566;-58
2022/03/12 06:51:42;;;;;;;24.90;15.52;;;;;;;6.98;75.53;101434.22;5073096;28;20029;-58
2022/03/12 06:54:08;;;;;;;23.92;15.45;;;;;;;7.00;75.99;101440.28;5072650;28;20099;-59
2022/03/12 06:56:34;;;;;;;24.17;15.15;;;;;;;7.02;75.40;101441.66;5072749;28;20453;-58
2022/03/12 06:59:00;;;;;;;23.70;14.90;;;;;;;7.05;76.00;101440.31;5072551;28;20095;-59
2022/03/12 07:01:25;;;;;;;23.00;14.40;;;;;;;7.13;75.76;101444.47;5072909;28;20037;-58
2022/03/12 07:03:50;;;;;;;23.00;14.20;;;;;;;7.20;75.79;101445.06;5072682;28;20064;-59
2022/03/12 07:06:15;;;;;;;23.73;14.10;;;;;;;7.25;75.55;101447.84;5071452;28;20024;-59
2022/03/12 07:08:41;;;;;;;23.60;14.45;;;;;;;7.29;76.05;101443.44;5072303;28;20104;-57
2022/03/12 07:11:07;;;;;;;24.23;14.70;;;;;;;7.34;76.22;101450.88;5072483;28;20094;-58
2022/03/12 07:13:34;;;;;;;23.92;13.93;;;;;;;7.46;75.39;101448.72;5054895;28;20024;-59
2022/03/12 07:16:00;;;;;;;23.88;15.20;;;;;;;7.52;76.21;101457.84;5072558;28;20071;-59
2022/03/12 07:18:26;;;;;;;21.90;14.25;;;;;;;7.60;75.64;101462.81;5072385;28;20492;-59
2022/03/12 07:20:51;;;;;;;23.65;14.55;;;;;;;7.69;75.04;101463.13;5054549;28;20035;-59
2022/03/12 07:23:17;;;;;;;24.13;14.93;;;;;;;7.73;75.50;101460.66;5067062;28;20037;-59
2022/03/12 07:25:42;;;;;;;21.95;14.15;;;;;;;7.82;75.62;101461.78;5062839;28;20032;-59
2022/03/12 07:28:10;;;;;;;22.23;14.35;;;;;;;7.87;75.36;101467.28;5060783;28;20538;-59
2022/03/12 07:30:35;;;;;;;21.92;14.07;;;;;;;7.93;75.04;101468.13;5061810;28;20029;-59
2022/03/12 07:33:01;;;;;;;23.63;14.32;;;;;;;7.94;75.42;101465.09;5060181;28;20040;-60
2022/03/12 07:35:26;;;;;;;22.23;13.77;;;;;;;7.97;75.90;101470.06;5062641;28;20427;-60
2022/03/12 07:37:52;;;;;;;21.90;13.52;;;;;;;8.02;75.79;101472.00;5042604;28;20036;-59
2022/03/12 07:40:18;;;;;;;24.23;13.70;;;;;;;8.05;76.17;101478.88;5060421;28;20017;-59
2022/03/12 07:42:44;;;;;;;23.15;13.77;;;;;;;8.08;76.19;101486.63;5061778;28;20051;-60
2022/03/12 07:45:10;;;;;;;23.40;14.38;;;;;;;8.07;76.31;101479.44;5060411;28;20044;-59
2022/03/12 07:47:36;;;;;;;21.70;14.32;;;;;;;8.15;76.79;101483.59;5062420;28;20020;-60
2022/03/12 07:50:05;;;;;;;21.92;13.60;;;;;;;8.21;76.22;101488.00;5061777;28;20033;-60
2022/03/12 07:52:30;;;;;;;22.80;14.02;;;;;;;8.27;76.25;101498.75;5060436;28;20029;-60
2022/03/12 07:54:55;;;;;;;23.13;14.30;;;;;;;8.37;75.92;101508.13;5062268;28;20025;-59
2022/03/12 07:57:26;;;;;;;22.95;14.23;;;;;;;8.44;76.24;101516.97;5061132;28;20025;-62
2022/03/12 07:59:52;;;;;;;22.83;14.45;;;;;;;8.52;76.06;101504.59;5059884;28;20039;-59
2022/03/12 08:02:17;;;;;;;23.38;13.98;;;;;;;8.61;75.80;101504.84;5061429;28;20024;-59
2022/03/12 08:04:42;;;;;;;22.25;13.85;;;;;;;8.71;75.54;101507.59;5061319;28;20029;-59
2022/03/12 08:07:07;;;;;;;22.02;14.45;;;;;;;8.80;75.14;101505.13;5060276;28;20036;-58
2022/03/12 08:09:33;;;;;;;22.45;13.93;;;;;;;8.87;74.83;101503.75;5061622;28;20414;-60
2022/03/12 08:11:59;;;;;;;23.77;14.98;;;;;;;8.94;74.96;101514.47;5058950;28;20048;-60
2022/03/12 08:14:25;;;;;;;23.20;14.18;;;;;;;9.01;74.68;101515.03;5043559;28;20053;-60
2022/03/12 08:16:52;;;;;;;27.10;17.88;;;;;;;9.01;75.00;101520.56;5059181;28;20029;-60
2022/03/12 08:19:19;;;;;;;24.45;16.52;;;;;;;9.10;74.62;101533.78;5061217;28;20032;-60
2022/03/12 08:21:45;;;;;;;23.30;16.17;;;;;;;9.13;74.39;101530.44;5061152;28;20469;-60
2022/03/12 08:24:15;;;;;;;30.63;24.00;;;;;;;9.15;74.68;101537.34;5058886;28;20025;-60
2022/03/12 08:26:41;;;;;;;29.65;22.52;;;;;;;9.16;74.48;101525.19;5060309;28;20150;-60
2022/03/12 08:29:09;;;;;;;26.20;19.30;;;;;;;9.23;74.44;101530.41;5042341;28;20434;-61
2022/03/12 08:31:34;;;;;;;24.70;18.35;;;;;;;9.28;74.38;101541.47;5058299;28;20480;-60
2022/03/12 08:34:00;;;;;;;21.52;14.10;;;;;;;9.30;74.11;101535.66;5056433;28;20035;-61
2022/03/12 08:36:25;;;;;;;21.20;13.32;;;;;;;9.39;73.61;101544.19;5051791;28;20182;-61
2022/03/12 08:38:50;;;;;;;23.70;13.88;;;;;;;9.49;73.35;101544.16;5033073;28;20185;-61
2022/03/12 08:41:16;;;;;;;21.35;13.57;;;;;;;9.57;73.42;101553.78;5051927;28;20110;-59
2022/03/12 08:43:41;;;;;;;20.92;13.05;;;;;;;9.64;73.04;101557.91;5051760;28;20469;-60
2022/03/12 08:46:07;;;;;;;21.45;13.15;;;;;;;9.73;72.53;101549.03;5051789;28;20025;-60
2022/03/12 08:48:34;;;;;;;21.58;13.68;;;;;;;9.80;72.82;101555.91;5056650;28;20130;-60
2022/03/12 08:51:00;;;;;;;21.13;12.88;;;;;;;9.86;71.94;101559.47;5058146;28;20516;-60
2022/03/12 08:53:25;;;;;;;21.30;13.13;;;;;;;9.95;72.03;101557.78;5060268;28;20159;-59
2022/03/12 08:55:51;;;;;;;21.05;13.20;;;;;;;10.07;71.19;101551.91;5062452;28;20052;-60
2022/03/12 08:58:18;;;;;;;22.95;12.43;;;;;;;10.23;70.56;101554.56;5059780;28;20029;-60
2022/03/12 09:00:44;;;;;;;21.20;12.57;;;;;;;10.34;70.32;101555.34;5057135;28;20032;-60
2022/03/12 09:03:11;;;;;;;20.60;12.20;;;;;;;10.44;69.93;101560.81;5049514;28;20079;-60
2022/03/12 09:05:37;;;;;;;20.85;12.35;;;;;;;10.48;69.69;101556.34;5049320;28;20036;-60
2022/03/12 09:08:03;;;;;;;21.00;12.48;;;;;;;10.56;69.13;101554.94;5049324;28;20021;-59
2022/03/12 09:10:28;;;;;;;20.38;12.20;;;;;;;10.61;69.13;101554.88;5049688;28;20124;-59
2022/03/12 09:12:54;;;;;;;20.95;12.80;;;;;;;10.67;69.08;101556.50;5051131;28;20431;-60
2022/03/12 09:15:24;;;;;;;19.70;12.15;;;;;;;10.72;69.18;101558.41;5051271;28;20090;-59
2022/03/12 09:17:50;;;;;;;20.40;12.38;;;;;;;10.77;68.64;101559.16;5050697;28;20057;-62
2022/03/12 09:20:15;;;;;;;21.42;12.52;;;;;;;10.80;68.46;101560.53;5050495;28;20476;-60
2022/03/12 09:22:41;;;;;;;27.42;16.98;;;;;;;10.85;68.06;101560.47;5050611;28;20048;-59
2022/03/12 09:25:11;;;;;;;21.45;13.90;;;;;;;11.00;68.03;101565.06;5050466;28;20110;-60
2022/03/12 09:27:37;;;;;;;24.38;16.35;;;;;;;11.15;68.23;101566.00;5051100;28;20059;-59
2022/03/12 09:30:04;;;;;;;26.73;21.08;;;;;;;11.20;67.15;101561.25;5053685;28;20064;-60
2022/03/12 09:32:29;;;;;;;34.80;27.88;;;;;;;11.26;66.69;101562.03;5055151;28;20080;-61
2022/03/12 09:34:54;;;;;;;28.77;23.10;;;;;;;11.23;66.28;101570.94;5054789;28;20432;-60
2022/03/12 09:37:19;;;;;;;27.95;21.00;;;;;;;11.25;66.61;101560.38;5054812;28;20025;-60
2022/03/12 09:39:46;;;;;;;26.83;19.83;;;;;;;11.27;66.65;101551.78;5035972;28;20452;-60
2022/03/12 09:42:11;;;;;;;23.08;14.75;;;;;;;11.31;66.46;101566.69;5055031;28;20048;-60
2022/03/12 09:44:36;;;;;;;22.95;14.80;;;;;;;11.37;66.22;101562.75;5054955;28;20097;-60
2022/03/12 09:47:02;;;;;;;23.05;13.50;;;;;;;11.47;66.07;101565.41;5054780;28;20472;-60
2022/03/12 09:49:28;;;;;;;22.75;14.98;;;;;;;11.57;65.24;101564.44;5054495;28;20060;-60
2022/03/12 09:51:53;;;;;;;22.42;15.40;;;;;;;11.75;65.14;101559.25;5036684;28;20060;-62
2022/03/12 09:54:19;;;;;;;23.92;15.20;;;;;;;11.90;64.67;101564.63;5054515;28;20040;-61
2022/03/12 09:56:45;;;;;;;32.08;20.95;;;;;;;12.04;64.17;101550.88;5036747;28;20178;-59
2022/03/12 09:59:10;;;;;;;49.78;29.05;;;;;;;12.07;60.46;101549.44;5054626;28;20045;-60
2022/03/12 10:01:35;;;;;;;28.70;15.52;;;;;;;12.22;60.11;101562.25;5054706;28;20107;-60
2022/03/12 10:04:01;;;;;;;18.98;11.07;;;;;;;12.28;60.08;101561.06;5054589;28;20040;-59
2022/03/12 10:06:29;;;;;;;19.90;10.27;;;;;;;12.39;58.70;101556.16;5054791;28;20538;-60
2022/03/12 10:08:55;;;;;;;21.13;10.90;;;;;;;12.43;57.86;101573.88;5054584;28;20032;-60
2022/03/12 10:11:20;;;;;;;19.05;10.75;;;;;;;12.38;57.98;101568.38;5054206;28;20052;-60
2022/03/12 10:13:45;;;;;;;18.95;10.18;;;;;;;12.39;57.25;101576.44;5054658;28;20103;-61
2022/03/12 10:16:11;;;;;;;19.95;10.30;;;;;;;12.40;57.68;101583.63;5053785;28;20036;-59
2022/03/12 10:18:37;;;;;;;19.13;10.57;;;;;;;12.37;58.12;101578.66;5052687;28;20118;-60
2022/03/12 10:21:03;;;;;;;17.35;9.70;;;;;;;12.32;58.07;101571.25;5054044;28;20522;-60
2022/03/12 10:23:28;;;;;;;18.63;9.77;;;;;;;12.31;57.29;101575.16;5054359;28;20516;-60
2022/03/12 10:25:54;;;;;;;17.92;8.98;;;;;;;12.38;57.16;101577.56;5054292;28;20032;-63
2022/03/12 10:28:19;;;;;;;19.38;9.85;;;;;;;12.43;58.39;101566.34;5036365;28;20086;-61
2022/03/12 10:30:45;;;;;;;19.20;10.25;;;;;;;12.57;57.46;101576.72;5054164;28;20390;-61
2022/03/12 10:33:20;;;;;;;20.25;10.43;;;;;;;12.58;57.71;101565.28;5053986;28;20495;-62
2022/03/12 10:35:46;;;;;;;18.70;9.18;;;;;;;12.73;56.90;101582.84;5054183;28;20029;-61
2022/03/12 10:38:13;;;;;;;18.35;9.55;;;;;;;12.76;54.78;101588.63;5059681;28;20032;-61
2022/03/12 10:40:38;;;;;;;18.90;9.65;;;;;;;12.79;55.00;101581.63;5070520;28;20111;-60
2022/03/12 10:43:12;;;;;;;19.63;9.48;;;;;;;12.82;55.73;101581.03;5035897;28;20116;-60
2022/03/12 10:45:50;;;;;;;18.90;9.15;;;;;;;12.69;55.95;101562.34;5060721;28;20029;-61
2022/03/12 10:48:20;;;;;;;19.55;9.63;;;;;;;12.82;55.21;101582.97;5039141;28;20502;-59
2022/03/12 10:50:48;;;;;;;18.52;9.93;;;;;;;12.78;54.97;101580.81;5073988;28;20090;-61
2022/03/12 10:53:15;;;;;;;17.60;9.38;;;;;;;12.81;54.49;101584.94;5073084;28;20060;-58
2022/03/12 10:55:44;;;;;;;17.85;9.65;;;;;;;12.83;54.05;101574.34;5053715;28;20079;-61
2022/03/12 10:58:12;;;;;;;22.90;12.23;;;;;;;12.95;53.87;101576.63;5053649;28;20116;-58
2022/03/12 11:00:44;;;;;;;20.23;10.77;;;;;;;12.91;53.73;101575.59;5053460;28;20112;-59
2022/03/12 11:03:13;;;;;;;18.67;9.32;;;;;;;12.89;53.79;101567.56;5053808;28;20083;-59
2022/03/12 11:05:42;;;;;;;26.13;13.13;;;;;;;13.11;54.16;101578.00;5053780;28;20111;-60
2022/03/12 11:08:20;;;;;;;42.28;30.73;;;;;;;13.25;53.16;101580.00;5054035;28;20037;-63
2022/03/12 11:11:01;;;;;;;30.63;20.65;;;;;;;13.44;52.94;101573.56;5057313;28;20048;-60
2022/03/12 11:13:38;;;;;;;24.85;15.45;;;;;;;13.55;52.69;101561.94;5073541;28;20040;-60
2022/03/12 11:16:09;;;;;;;21.27;10.50;;;;;;;13.73;50.89;101574.09;5073655;28;20058;-60